sensor_id;sensor_type;location;lat;lon;timestamp;pressure;altitude;pressure_sealevel;temperature;humidity
75855;BME280;64502;59.976;30.316;2023-05-02T00:02:05;101120.22;;;8.47;46.44
75855;BME280;64502;59.976;30.316;2023-05-02T00:04:31;101125.59;;;8.43;47.11
75855;BME280;64502;59.976;30.316;2023-05-02T00:06:57;101118.69;;;8.41;47.63
75855;BME280;64502;59.976;30.316;2023-05-02T00:09:23;101116.13;;;8.39;47.50
75855;BME280;64502;59.976;30.316;2023-05-02T00:11:48;101132.94;;;8.35;47.51
75855;BME280;64502;59.976;30.316;2023-05-02T00:14:13;101122.78;;;8.26;48.93
75855;BME280;64502;59.976;30.316;2023-05-02T00:16:39;101128.47;;;8.15;50.25
75855;BME280;64502;59.976;30.316;2023-05-02T00:19:04;101120.13;;;8.06;49.77
75855;BME280;64502;59.976;30.316;2023-05-02T00:21:30;101119.41;;;8.02;50.88
75855;BME280;64502;59.976;30.316;2023-05-02T00:23:57;101119.84;;;7.91;52.54
75855;BME280;64502;59.976;30.316;2023-05-02T00:26:23;101115.72;;;7.86;53.33
75855;BME280;64502;59.976;30.316;2023-05-02T00:28:49;101112.28;;;7.84;52.34
75855;BME280;64502;59.976;30.316;2023-05-02T00:31:14;101111.47;;;7.82;53.00
75855;BME280;64502;59.976;30.316;2023-05-02T00:33:41;101116.13;;;7.75;54.18
75855;BME280;64502;59.976;30.316;2023-05-02T00:36:16;101118.56;;;7.79;53.34
75855;BME280;64502;59.976;30.316;2023-05-02T00:38:42;101110.09;;;7.73;54.26
75855;BME280;64502;59.976;30.316;2023-05-02T00:41:08;101110.34;;;7.67;56.68
75855;BME280;64502;59.976;30.316;2023-05-02T00:43:34;101113.00;;;7.65;56.65
75855;BME280;64502;59.976;30.316;2023-05-02T00:46:01;101113.97;;;7.63;56.53
75855;BME280;64502;59.976;30.316;2023-05-02T00:48:26;101110.69;;;7.57;57.03
75855;BME280;64502;59.976;30.316;2023-05-02T00:50:52;101108.06;;;7.57;56.81
75855;BME280;64502;59.976;30.316;2023-05-02T00:53:17;101108.97;;;7.56;56.23
75855;BME280;64502;59.976;30.316;2023-05-02T00:55:43;101109.16;;;7.52;58.14
75855;BME280;64502;59.976;30.316;2023-05-02T00:58:13;101105.94;;;7.45;59.12
75855;BME280;64502;59.976;30.316;2023-05-02T01:08:58;101107.31;;;7.08;62.91
75855;BME280;64502;59.976;30.316;2023-05-02T01:11:36;101100.59;;;7.01;61.47
75855;BME280;64502;59.976;30.316;2023-05-02T01:14:05;101110.44;;;6.95;63.79
75855;BME280;64502;59.976;30.316;2023-05-02T01:16:35;101100.91;;;6.92;63.62
75855;BME280;64502;59.976;30.316;2023-05-02T01:19:05;101103.66;;;6.89;65.88
75855;BME280;64502;59.976;30.316;2023-05-02T01:21:35;101097.81;;;6.82;65.44
75855;BME280;64502;59.976;30.316;2023-05-02T01:24:05;101112.88;;;6.76;66.72
75855;BME280;64502;59.976;30.316;2023-05-02T01:26:35;101105.03;;;6.76;64.44
75855;BME280;64502;59.976;30.316;2023-05-02T01:29:07;101110.66;;;6.65;66.85
75855;BME280;64502;59.976;30.316;2023-05-02T01:31:39;101099.56;;;6.57;68.77
75855;BME280;64502;59.976;30.316;2023-05-02T01:34:08;101092.75;;;6.53;68.38
75855;BME280;64502;59.976;30.316;2023-05-02T01:36:35;101091.97;;;6.49;68.13
75855;BME280;64502;59.976;30.316;2023-05-02T01:39:02;101095.50;;;6.48;69.14
75855;BME280;64502;59.976;30.316;2023-05-02T01:41:32;101099.06;;;6.47;69.24
75855;BME280;64502;59.976;30.316;2023-05-02T01:44:01;101099.91;;;6.48;69.54
75855;BME280;64502;59.976;30.316;2023-05-02T01:46:33;101101.78;;;6.44;69.41
75855;BME280;64502;59.976;30.316;2023-05-02T01:49:01;101102.69;;;6.43;69.46
75855;BME280;64502;59.976;30.316;2023-05-02T01:51:29;101106.22;;;6.42;69.46
75855;BME280;64502;59.976;30.316;2023-05-02T01:54:04;101101.03;;;6.40;70.00
75855;BME280;64502;59.976;30.316;2023-05-02T01:56:31;101090.78;;;6.33;70.32
75855;BME280;64502;59.976;30.316;2023-05-02T01:58:58;101106.69;;;6.28;71.40
75855;BME280;64502;59.976;30.316;2023-05-02T02:01:25;101103.31;;;6.25;71.11
75855;BME280;64502;59.976;30.316;2023-05-02T02:03:57;101100.75;;;6.23;71.97
75855;BME280;64502;59.976;30.316;2023-05-02T02:06:24;101087.88;;;6.17;71.67
75855;BME280;64502;59.976;30.316;2023-05-02T02:08:50;101097.47;;;6.16;73.45
75855;BME280;64502;59.976;30.316;2023-05-02T02:11:26;101093.25;;;6.12;71.79
75855;BME280;64502;59.976;30.316;2023-05-02T02:14:05;101102.88;;;6.12;72.38
75855;BME280;64502;59.976;30.316;2023-05-02T02:16:33;101107.19;;;6.13;73.17
75855;BME280;64502;59.976;30.316;2023-05-02T02:19:05;101102.88;;;6.12;73.24
75855;BME280;64502;59.976;30.316;2023-05-02T02:21:33;101110.84;;;6.09;73.70
75855;BME280;64502;59.976;30.316;2023-05-02T02:24:01;101103.94;;;6.06;73.47
75855;BME280;64502;59.976;30.316;2023-05-02T02:26:28;101104.84;;;6.05;74.86
75855;BME280;64502;59.976;30.316;2023-05-02T02:28:55;101108.50;;;5.99;74.63
75855;BME280;64502;59.976;30.316;2023-05-02T02:31:20;101107.78;;;5.96;74.49
75855;BME280;64502;59.976;30.316;2023-05-02T02:33:46;101091.25;;;5.94;74.41
75855;BME280;64502;59.976;30.316;2023-05-02T02:36:24;101097.28;;;5.96;75.53
75855;BME280;64502;59.976;30.316;2023-05-02T02:42:10;101113.19;;;5.90;76.75
75855;BME280;64502;59.976;30.316;2023-05-02T02:44:49;101139.72;;;5.79;77.90
75855;BME280;64502;59.976;30.316;2023-05-02T02:47:26;101104.00;;;5.76;77.50
75855;BME280;64502;59.976;30.316;2023-05-02T02:50:07;101116.25;;;5.76;78.26
75855;BME280;64502;59.976;30.316;2023-05-02T02:52:47;101121.75;;;5.67;77.96
75855;BME280;64502;59.976;30.316;2023-05-02T03:01:17;101085.94;;;5.41;80.42
75855;BME280;64502;59.976;30.316;2023-05-02T03:03:45;101080.72;;;5.39;80.59
75855;BME280;64502;59.976;30.316;2023-05-02T03:06:12;101084.31;;;5.37;80.51
75855;BME280;64502;59.976;30.316;2023-05-02T03:08:42;101073.69;;;5.41;81.01
75855;BME280;64502;59.976;30.316;2023-05-02T03:11:08;101070.13;;;5.44;79.90
75855;BME280;64502;59.976;30.316;2023-05-02T03:13:34;101068.16;;;5.50;80.34
75855;BME280;64502;59.976;30.316;2023-05-02T03:16:30;101065.50;;;5.52;79.99
75855;BME280;64502;59.976;30.316;2023-05-02T03:18:56;101061.09;;;5.54;80.10
75855;BME280;64502;59.976;30.316;2023-05-02T03:21:22;101071.47;;;5.57;79.95
75855;BME280;64502;59.976;30.316;2023-05-02T03:23:47;101052.19;;;5.60;80.06
75855;BME280;64502;59.976;30.316;2023-05-02T03:26:13;101064.31;;;5.62;80.14
75855;BME280;64502;59.976;30.316;2023-05-02T03:28:38;101063.38;;;5.65;79.65
75855;BME280;64502;59.976;30.316;2023-05-02T03:31:04;101056.25;;;5.68;79.09
75855;BME280;64502;59.976;30.316;2023-05-02T03:33:29;101056.16;;;5.71;79.80
75855;BME280;64502;59.976;30.316;2023-05-02T03:35:56;101054.28;;;5.75;78.84
75855;BME280;64502;59.976;30.316;2023-05-02T03:38:22;101057.69;;;5.78;79.91
75855;BME280;64502;59.976;30.316;2023-05-02T03:40:48;101061.97;;;5.81;79.96
75855;BME280;64502;59.976;30.316;2023-05-02T03:43:13;101074.00;;;5.87;79.88
75855;BME280;64502;59.976;30.316;2023-05-02T03:45:39;101073.94;;;5.88;78.89
75855;BME280;64502;59.976;30.316;2023-05-02T03:48:05;101065.19;;;5.89;79.18
75855;BME280;64502;59.976;30.316;2023-05-02T03:50:30;101062.56;;;5.89;78.11
75855;BME280;64502;59.976;30.316;2023-05-02T03:52:56;101056.44;;;5.89;78.51
75855;BME280;64502;59.976;30.316;2023-05-02T03:55:22;101072.06;;;5.92;79.00
75855;BME280;64502;59.976;30.316;2023-05-02T03:57:47;101063.25;;;5.96;79.56
75855;BME280;64502;59.976;30.316;2023-05-02T04:00:13;101071.00;;;5.99;78.76
75855;BME280;64502;59.976;30.316;2023-05-02T04:02:39;101063.03;;;6.02;78.96
75855;BME280;64502;59.976;30.316;2023-05-02T04:05:05;101054.22;;;6.05;79.06
75855;BME280;64502;59.976;30.316;2023-05-02T04:07:30;101054.09;;;6.08;78.36
75855;BME280;64502;59.976;30.316;2023-05-02T04:09:55;101055.72;;;6.12;77.57
75855;BME280;64502;59.976;30.316;2023-05-02T04:12:21;101047.69;;;6.16;77.07
75855;BME280;64502;59.976;30.316;2023-05-02T04:14:47;101052.03;;;6.17;77.29
75855;BME280;64502;59.976;30.316;2023-05-02T04:17:13;101051.06;;;6.20;75.80
75855;BME280;64502;59.976;30.316;2023-05-02T04:19:40;101049.16;;;6.25;76.52
75855;BME280;64502;59.976;30.316;2023-05-02T04:22:05;101043.69;;;6.31;77.52
75855;BME280;64502;59.976;30.316;2023-05-02T04:24:31;101033.91;;;6.36;76.13
75855;BME280;64502;59.976;30.316;2023-05-02T04:26:56;101031.91;;;6.43;76.71
75855;BME280;64502;59.976;30.316;2023-05-02T04:29:22;101029.88;;;6.51;76.54
75855;BME280;64502;59.976;30.316;2023-05-02T04:31:47;101029.59;;;6.59;76.35
75855;BME280;64502;59.976;30.316;2023-05-02T04:34:13;101024.06;;;6.66;75.49
75855;BME280;64502;59.976;30.316;2023-05-02T04:36:38;101030.78;;;6.74;75.31
75855;BME280;64502;59.976;30.316;2023-05-02T04:39:04;101025.25;;;6.81;76.95
75855;BME280;64502;59.976;30.316;2023-05-02T04:41:32;101025.78;;;6.91;75.31
75855;BME280;64502;59.976;30.316;2023-05-02T04:43:58;101015.00;;;6.99;74.87
75855;BME280;64502;59.976;30.316;2023-05-02T04:46:23;101006.81;;;7.06;75.18
75855;BME280;64502;59.976;30.316;2023-05-02T04:48:49;100993.25;;;7.17;75.04
75855;BME280;64502;59.976;30.316;2023-05-02T04:51:15;100997.50;;;7.21;73.26
75855;BME280;64502;59.976;30.316;2023-05-02T04:53:40;100989.25;;;7.30;73.01
75855;BME280;64502;59.976;30.316;2023-05-02T04:56:06;100984.47;;;7.40;73.43
75855;BME280;64502;59.976;30.316;2023-05-02T04:58:32;100981.47;;;7.49;72.95
75855;BME280;64502;59.976;30.316;2023-05-02T05:00:59;100975.91;;;7.57;72.72
75855;BME280;64502;59.976;30.316;2023-05-02T05:03:25;100973.94;;;7.62;72.53
75855;BME280;64502;59.976;30.316;2023-05-02T05:05:50;100973.69;;;7.68;71.51
75855;BME280;64502;59.976;30.316;2023-05-02T05:08:16;100968.44;;;7.68;71.85
75855;BME280;64502;59.976;30.316;2023-05-02T05:10:41;100968.25;;;7.73;72.44
75855;BME280;64502;59.976;30.316;2023-05-02T05:13:06;100960.09;;;7.79;72.50
75855;BME280;64502;59.976;30.316;2023-05-02T05:15:32;100965.22;;;7.82;71.40
75855;BME280;64502;59.976;30.316;2023-05-02T05:17:57;100971.25;;;7.84;70.80
75855;BME280;64502;59.976;30.316;2023-05-02T05:20:23;100949.19;;;7.88;71.47
75855;BME280;64502;59.976;30.316;2023-05-02T05:22:48;100955.22;;;7.90;70.02
75855;BME280;64502;59.976;30.316;2023-05-02T05:25:14;100960.34;;;7.93;70.25
75855;BME280;64502;59.976;30.316;2023-05-02T05:27:40;100948.00;;;7.95;70.40
75855;BME280;64502;59.976;30.316;2023-05-02T05:30:06;100935.53;;;8.00;69.89
75855;BME280;64502;59.976;30.316;2023-05-02T05:32:33;100939.66;;;8.06;69.25
75855;BME280;64502;59.976;30.316;2023-05-02T05:34:58;100933.06;;;8.16;69.23
75855;BME280;64502;59.976;30.316;2023-05-02T05:37:24;100928.25;;;8.26;68.97
75855;BME280;64502;59.976;30.316;2023-05-02T05:39:49;100931.06;;;8.42;68.50
75855;BME280;64502;59.976;30.316;2023-05-02T05:42:15;100935.94;;;8.51;68.04
75855;BME280;64502;59.976;30.316;2023-05-02T05:44:41;100929.28;;;8.61;67.05
75855;BME280;64502;59.976;30.316;2023-05-02T05:47:07;100923.53;;;8.72;67.04
75855;BME280;64502;59.976;30.316;2023-05-02T05:49:32;100907.31;;;8.81;66.41
75855;BME280;64502;59.976;30.316;2023-05-02T05:52:00;100917.69;;;8.84;63.71
75855;BME280;64502;59.976;30.316;2023-05-02T05:54:26;100908.03;;;8.85;64.80
75855;BME280;64502;59.976;30.316;2023-05-02T05:56:51;100905.19;;;8.89;64.84
75855;BME280;64502;59.976;30.316;2023-05-02T05:59:17;100910.97;;;8.96;64.29
75855;BME280;64502;59.976;30.316;2023-05-02T06:01:42;100903.63;;;9.03;64.89
75855;BME280;64502;59.976;30.316;2023-05-02T06:04:08;100909.47;;;9.09;64.71
75855;BME280;64502;59.976;30.316;2023-05-02T06:06:33;100900.34;;;9.17;63.70
75855;BME280;64502;59.976;30.316;2023-05-02T06:08:59;100890.34;;;9.23;63.75
75855;BME280;64502;59.976;30.316;2023-05-02T06:11:24;100890.75;;;9.33;64.03
75855;BME280;64502;59.976;30.316;2023-05-02T06:13:53;100887.72;;;9.41;62.54
75855;BME280;64502;59.976;30.316;2023-05-02T06:16:19;100880.44;;;9.46;62.38
75855;BME280;64502;59.976;30.316;2023-05-02T06:18:46;100879.03;;;9.56;61.21
75855;BME280;64502;59.976;30.316;2023-05-02T06:21:11;100889.09;;;9.65;62.12
75855;BME280;64502;59.976;30.316;2023-05-02T06:23:37;100893.06;;;9.74;58.96
75855;BME280;64502;59.976;30.316;2023-05-02T06:26:03;100874.19;;;9.82;60.57
75855;BME280;64502;59.976;30.316;2023-05-02T06:28:30;100880.63;;;9.93;59.28
75855;BME280;64502;59.976;30.316;2023-05-02T06:31:05;100884.59;;;10.18;56.80
75855;BME280;64502;59.976;30.316;2023-05-02T06:33:31;100874.84;;;10.36;57.36
75855;BME280;64502;59.976;30.316;2023-05-02T06:35:58;100862.84;;;10.46;57.47
75855;BME280;64502;59.976;30.316;2023-05-02T06:38:23;100868.63;;;10.53;56.36
75855;BME280;64502;59.976;30.316;2023-05-02T06:40:50;100864.56;;;10.63;56.96
75855;BME280;64502;59.976;30.316;2023-05-02T06:43:16;100866.84;;;10.69;57.13
75855;BME280;64502;59.976;30.316;2023-05-02T06:45:42;100857.22;;;10.84;58.35
75855;BME280;64502;59.976;30.316;2023-05-02T06:48:08;100863.69;;;10.94;55.53
75855;BME280;64502;59.976;30.316;2023-05-02T06:50:33;100856.06;;;11.04;55.38
75855;BME280;64502;59.976;30.316;2023-05-02T06:52:59;100852.13;;;11.11;55.70
75855;BME280;64502;59.976;30.316;2023-05-02T06:55:25;100857.47;;;11.25;55.45
75855;BME280;64502;59.976;30.316;2023-05-02T06:57:51;100850.50;;;11.39;55.69
75855;BME280;64502;59.976;30.316;2023-05-02T07:00:17;100850.25;;;11.43;52.36
75855;BME280;64502;59.976;30.316;2023-05-02T07:02:44;100846.38;;;11.49;52.79
75855;BME280;64502;59.976;30.316;2023-05-02T07:05:10;100842.91;;;11.63;53.42
75855;BME280;64502;59.976;30.316;2023-05-02T07:07:36;100846.41;;;11.77;52.36
75855;BME280;64502;59.976;30.316;2023-05-02T07:10:02;100844.47;;;11.95;52.19
75855;BME280;64502;59.976;30.316;2023-05-02T07:12:28;100837.28;;;12.12;51.77
75855;BME280;64502;59.976;30.316;2023-05-02T07:14:55;100823.25;;;12.24;50.19
75855;BME280;64502;59.976;30.316;2023-05-02T07:17:20;100831.34;;;12.35;50.25
75855;BME280;64502;59.976;30.316;2023-05-02T07:19:46;100821.06;;;12.45;50.75
75855;BME280;64502;59.976;30.316;2023-05-02T07:22:12;100823.56;;;12.47;50.45
75855;BME280;64502;59.976;30.316;2023-05-02T07:24:41;100817.22;;;12.63;50.88
75855;BME280;64502;59.976;30.316;2023-05-02T07:27:10;100817.25;;;12.76;49.74
75855;BME280;64502;59.976;30.316;2023-05-02T07:29:36;100805.09;;;12.86;48.93
75855;BME280;64502;59.976;30.316;2023-05-02T07:32:01;100804.31;;;12.99;50.08
75855;BME280;64502;59.976;30.316;2023-05-02T07:34:27;100802.50;;;13.12;46.37
75855;BME280;64502;59.976;30.316;2023-05-02T07:36:52;100785.16;;;13.21;47.72
75855;BME280;64502;59.976;30.316;2023-05-02T07:39:18;100785.84;;;13.37;47.77
75855;BME280;64502;59.976;30.316;2023-05-02T07:41:44;100795.06;;;13.57;45.75
75855;BME280;64502;59.976;30.316;2023-05-02T07:44:10;100785.28;;;13.70;46.47
75855;BME280;64502;59.976;30.316;2023-05-02T07:46:36;100790.38;;;13.86;45.16
75855;BME280;64502;59.976;30.316;2023-05-02T07:49:01;100791.91;;;14.02;43.95
75855;BME280;64502;59.976;30.316;2023-05-02T07:51:27;100773.31;;;14.14;44.74
75855;BME280;64502;59.976;30.316;2023-05-02T07:53:52;100767.22;;;14.25;42.71
75855;BME280;64502;59.976;30.316;2023-05-02T07:56:20;100767.56;;;14.20;43.07
75855;BME280;64502;59.976;30.316;2023-05-02T07:58:45;100775.56;;;14.32;42.05
75855;BME280;64502;59.976;30.316;2023-05-02T08:01:10;100790.94;;;14.52;41.03
75855;BME280;64502;59.976;30.316;2023-05-02T08:03:36;100758.84;;;14.55;40.60
75855;BME280;64502;59.976;30.316;2023-05-02T08:06:01;100776.38;;;14.58;41.78
75855;BME280;64502;59.976;30.316;2023-05-02T08:08:28;100764.59;;;14.73;41.14
75855;BME280;64502;59.976;30.316;2023-05-02T08:10:53;100744.84;;;14.88;40.21
75855;BME280;64502;59.976;30.316;2023-05-02T08:13:19;100751.16;;;14.99;40.11
75855;BME280;64502;59.976;30.316;2023-05-02T08:15:44;100741.88;;;15.04;38.75
75855;BME280;64502;59.976;30.316;2023-05-02T08:18:10;100747.94;;;15.18;38.93
75855;BME280;64502;59.976;30.316;2023-05-02T08:20:36;100746.03;;;15.42;38.15
75855;BME280;64502;59.976;30.316;2023-05-02T08:23:01;100747.59;;;15.67;38.64
75855;BME280;64502;59.976;30.316;2023-05-02T08:25:27;100744.63;;;15.83;36.53
75855;BME280;64502;59.976;30.316;2023-05-02T08:27:54;100734.53;;;15.98;37.16
75855;BME280;64502;59.976;30.316;2023-05-02T08:30:19;100732.94;;;16.18;36.30
75855;BME280;64502;59.976;30.316;2023-05-02T08:32:45;100737.63;;;16.26;34.28
75855;BME280;64502;59.976;30.316;2023-05-02T08:35:11;100728.06;;;16.23;35.33
75855;BME280;64502;59.976;30.316;2023-05-02T08:37:38;100735.25;;;16.11;33.73
75855;BME280;64502;59.976;30.316;2023-05-02T08:40:04;100731.84;;;16.09;33.69
75855;BME280;64502;59.976;30.316;2023-05-02T08:42:32;100736.56;;;16.17;34.38
75855;BME280;64502;59.976;30.316;2023-05-02T08:44:57;100745.03;;;16.22;33.11
75855;BME280;64502;59.976;30.316;2023-05-02T08:47:24;100746.38;;;16.16;33.92
75855;BME280;64502;59.976;30.316;2023-05-02T08:49:50;100732.53;;;16.23;35.50
75855;BME280;64502;59.976;30.316;2023-05-02T08:52:18;100713.50;;;16.38;34.36
75855;BME280;64502;59.976;30.316;2023-05-02T08:54:44;100732.94;;;16.50;34.93
75855;BME280;64502;59.976;30.316;2023-05-02T08:57:10;100726.66;;;16.51;33.80
75855;BME280;64502;59.976;30.316;2023-05-02T08:59:36;100720.91;;;16.56;34.61
75855;BME280;64502;59.976;30.316;2023-05-02T09:02:14;100719.91;;;16.68;34.06
75855;BME280;64502;59.976;30.316;2023-05-02T09:04:42;100725.22;;;16.79;32.28
75855;BME280;64502;59.976;30.316;2023-05-02T09:07:08;100716.38;;;17.00;32.45
75855;BME280;64502;59.976;30.316;2023-05-02T09:09:34;100708.91;;;16.94;32.19
75855;BME280;64502;59.976;30.316;2023-05-02T09:12:00;100714.56;;;17.00;32.09
75855;BME280;64502;59.976;30.316;2023-05-02T09:14:26;100720.09;;;17.08;30.80
75855;BME280;64502;59.976;30.316;2023-05-02T09:16:57;100704.81;;;17.11;31.07
75855;BME280;64502;59.976;30.316;2023-05-02T09:19:25;100706.03;;;17.06;31.53
75855;BME280;64502;59.976;30.316;2023-05-02T09:21:50;100711.81;;;17.12;30.65
75855;BME280;64502;59.976;30.316;2023-05-02T09:24:18;100710.97;;;17.11;30.50
75855;BME280;64502;59.976;30.316;2023-05-02T09:26:56;100703.19;;;17.29;30.83
75855;BME280;64502;59.976;30.316;2023-05-02T09:29:22;100690.41;;;17.23;29.93
75855;BME280;64502;59.976;30.316;2023-05-02T09:31:48;100695.66;;;17.34;29.96
75855;BME280;64502;59.976;30.316;2023-05-02T09:34:15;100700.88;;;17.45;29.41
75855;BME280;64502;59.976;30.316;2023-05-02T09:36:43;100684.53;;;17.60;30.39
75855;BME280;64502;59.976;30.316;2023-05-02T09:39:18;100680.47;;;17.65;29.31
75855;BME280;64502;59.976;30.316;2023-05-02T09:41:46;100687.38;;;17.68;29.22
75855;BME280;64502;59.976;30.316;2023-05-02T09:44:13;100699.69;;;17.90;28.74
75855;BME280;64502;59.976;30.316;2023-05-02T09:46:46;100688.44;;;17.96;29.24
75855;BME280;64502;59.976;30.316;2023-05-02T09:49:12;100680.44;;;17.96;28.18
75855;BME280;64502;59.976;30.316;2023-05-02T09:51:39;100674.13;;;18.16;27.88
75855;BME280;64502;59.976;30.316;2023-05-02T09:54:05;100678.06;;;18.12;27.18
75855;BME280;64502;59.976;30.316;2023-05-02T09:56:30;100677.22;;;18.12;28.29
75855;BME280;64502;59.976;30.316;2023-05-02T10:01:41;100655.72;;;18.13;28.24
75855;BME280;64502;59.976;30.316;2023-05-02T10:04:13;100686.50;;;18.27;28.25
75855;BME280;64502;59.976;30.316;2023-05-02T10:06:44;100665.84;;;18.39;26.88
75855;BME280;64502;59.976;30.316;2023-05-02T10:09:10;100666.53;;;18.51;28.34
75855;BME280;64502;59.976;30.316;2023-05-02T10:11:43;100649.94;;;18.57;27.44
75855;BME280;64502;59.976;30.316;2023-05-02T10:14:09;100662.44;;;18.56;26.59
75855;BME280;64502;59.976;30.316;2023-05-02T10:17:11;100654.28;;;18.68;27.44
75855;BME280;64502;59.976;30.316;2023-05-02T10:19:32;100666.09;;;18.65;26.93
75855;BME280;64502;59.976;30.316;2023-05-02T10:22:02;100649.34;;;18.73;26.57
75855;BME280;64502;59.976;30.316;2023-05-02T10:24:30;100649.34;;;18.73;26.89
75855;BME280;64502;59.976;30.316;2023-05-02T10:26:57;100649.94;;;18.76;26.39
75855;BME280;64502;59.976;30.316;2023-05-02T10:29:23;100654.16;;;18.59;25.91
75855;BME280;64502;59.976;30.316;2023-05-02T10:31:49;100642.66;;;18.20;26.81
75855;BME280;64502;59.976;30.316;2023-05-02T10:34:17;100669.72;;;17.86;26.22
75855;BME280;64502;59.976;30.316;2023-05-02T10:36:43;100673.38;;;17.85;26.72
75855;BME280;64502;59.976;30.316;2023-05-02T10:39:08;100645.25;;;17.81;26.52
75855;BME280;64502;59.976;30.316;2023-05-02T10:41:34;100660.34;;;18.02;25.64
75855;BME280;64502;59.976;30.316;2023-05-02T10:44:01;100663.28;;;18.08;26.01
75855;BME280;64502;59.976;30.316;2023-05-02T10:46:33;100638.56;;;18.06;26.51
75855;BME280;64502;59.976;30.316;2023-05-02T10:49:03;100645.88;;;18.24;26.00
75855;BME280;64502;59.976;30.316;2023-05-02T10:51:29;100635.47;;;18.50;26.22
75855;BME280;64502;59.976;30.316;2023-05-02T10:59:40;100628.91;;;19.66;25.47
75855;BME280;64502;59.976;30.316;2023-05-02T11:07:27;100611.25;;;20.09;23.54
75855;BME280;64502;59.976;30.316;2023-05-02T11:09:53;100616.69;;;19.99;23.55
75855;BME280;64502;59.976;30.316;2023-05-02T11:15:14;100612.59;;;19.59;23.60
75855;BME280;64502;59.976;30.316;2023-05-02T11:18:02;100621.16;;;19.63;24.17
75855;BME280;64502;59.976;30.316;2023-05-02T11:20:29;100611.47;;;19.80;23.44
75855;BME280;64502;59.976;30.316;2023-05-02T11:22:57;100579.81;;;19.93;22.86
75855;BME280;64502;59.976;30.316;2023-05-02T11:27:55;100575.31;;;20.37;23.13
75855;BME280;64502;59.976;30.316;2023-05-02T11:30:38;100592.03;;;20.75;22.72
75855;BME280;64502;59.976;30.316;2023-05-02T11:35:30;100572.94;;;21.13;21.94
75855;BME280;64502;59.976;30.316;2023-05-02T11:37:57;100553.63;;;21.01;22.09
75855;BME280;64502;59.976;30.316;2023-05-02T11:40:24;100541.53;;;21.05;22.64
75855;BME280;64502;59.976;30.316;2023-05-02T11:42:50;100552.91;;;20.65;22.49
75855;BME280;64502;59.976;30.316;2023-05-02T11:45:16;100547.53;;;20.91;22.50
75855;BME280;64502;59.976;30.316;2023-05-02T11:47:42;100552.03;;;21.33;22.04
75855;BME280;64502;59.976;30.316;2023-05-02T11:50:11;100545.94;;;21.73;21.42
75855;BME280;64502;59.976;30.316;2023-05-02T11:52:41;100543.44;;;21.88;21.15
75855;BME280;64502;59.976;30.316;2023-05-02T11:55:12;100534.72;;;21.94;20.89
75855;BME280;64502;59.976;30.316;2023-05-02T11:57:38;100526.66;;;21.78;20.89
75855;BME280;64502;59.976;30.316;2023-05-02T12:00:04;100519.56;;;21.52;21.08
75855;BME280;64502;59.976;30.316;2023-05-02T12:02:37;100543.28;;;21.22;21.65
75855;BME280;64502;59.976;30.316;2023-05-02T12:05:04;100528.81;;;20.73;21.25
75855;BME280;64502;59.976;30.316;2023-05-02T12:07:36;100530.56;;;20.56;21.57
75855;BME280;64502;59.976;30.316;2023-05-02T12:10:08;100526.63;;;20.68;22.48
75855;BME280;64502;59.976;30.316;2023-05-02T12:12:37;100513.59;;;20.81;21.32
75855;BME280;64502;59.976;30.316;2023-05-02T12:15:04;100502.22;;;20.79;22.21
75855;BME280;64502;59.976;30.316;2023-05-02T12:17:31;100506.50;;;20.64;21.74
75855;BME280;64502;59.976;30.316;2023-05-02T12:19:58;100496.16;;;20.77;22.36
75855;BME280;64502;59.976;30.316;2023-05-02T12:22:24;100495.28;;;20.43;22.19
75855;BME280;64502;59.976;30.316;2023-05-02T12:24:50;100492.50;;;20.52;22.47
75855;BME280;64502;59.976;30.316;2023-05-02T12:27:18;100493.97;;;20.47;21.63
75855;BME280;64502;59.976;30.316;2023-05-02T12:29:46;100487.91;;;20.63;22.31
75855;BME280;64502;59.976;30.316;2023-05-02T12:32:13;100484.97;;;20.82;21.81
75855;BME280;64502;59.976;30.316;2023-05-02T12:34:39;100471.47;;;21.08;21.53
75855;BME280;64502;59.976;30.316;2023-05-02T12:37:05;100488.03;;;20.95;21.13
75855;BME280;64502;59.976;30.316;2023-05-02T12:39:39;100475.97;;;20.99;21.85
75855;BME280;64502;59.976;30.316;2023-05-02T12:42:12;100464.50;;;20.81;21.45
75855;BME280;64502;59.976;30.316;2023-05-02T12:44:39;100470.00;;;20.71;21.15
75855;BME280;64502;59.976;30.316;2023-05-02T12:47:05;100465.81;;;20.69;21.14
75855;BME280;64502;59.976;30.316;2023-05-02T12:49:32;100465.09;;;20.58;21.07
75855;BME280;64502;59.976;30.316;2023-05-02T12:51:57;100473.81;;;20.60;21.84
75855;BME280;64502;59.976;30.316;2023-05-02T12:54:23;100466.50;;;20.71;21.51
75855;BME280;64502;59.976;30.316;2023-05-02T12:56:51;100488.09;;;20.69;20.91
75855;BME280;64502;59.976;30.316;2023-05-02T12:59:31;100455.19;;;20.59;20.83
75855;BME280;64502;59.976;30.316;2023-05-02T13:01:58;100447.22;;;20.41;21.06
75855;BME280;64502;59.976;30.316;2023-05-02T13:04:41;100445.34;;;20.33;20.79
75855;BME280;64502;59.976;30.316;2023-05-02T13:07:07;100456.00;;;20.25;21.27
75855;BME280;64502;59.976;30.316;2023-05-02T13:09:32;100450.09;;;20.48;21.31
75855;BME280;64502;59.976;30.316;2023-05-02T13:11:58;100448.16;;;20.58;20.99
75855;BME280;64502;59.976;30.316;2023-05-02T13:14:24;100467.53;;;20.52;20.98
75855;BME280;64502;59.976;30.316;2023-05-02T13:16:49;100437.03;;;20.18;21.50
75855;BME280;64502;59.976;30.316;2023-05-02T13:19:19;100441.38;;;19.93;21.69
75855;BME280;64502;59.976;30.316;2023-05-02T13:21:44;100429.53;;;19.70;22.48
75855;BME280;64502;59.976;30.316;2023-05-02T13:24:10;100428.88;;;19.58;22.52
75855;BME280;64502;59.976;30.316;2023-05-02T13:26:35;100421.31;;;19.54;22.20